Terminal Aerodrome Forecast
Issued by NWS Lake Charles, LA

Home | Current Version | Previous Version | Text Only | Print | Product List | Glossary On
Versions: 1 2 3 4 5 6 7 8 9 10 11 12 13
000
FTUS44 KLCH 051136
TAFAEX
TAF
KAEX 051136Z 0512/0612 12006KT 6SM BR BKN090
     FM051500 13012G18KT P6SM VCSH SCT040 SCT250
     FM052300 14009KT P6SM SCT250=

USA.gov is the U.S. government's official web portal to all federal, state and local government web resources and services.